createdAt,value
2024-04-11T04:00:33.860Z,3.30
2024-04-11T04:04:45.993Z,2.60
2024-04-11T04:08:58.495Z,2.60
2024-04-11T04:13:12.337Z,3.37
2024-04-11T04:17:25.465Z,3.00
2024-04-11T04:21:37.814Z,3.57
2024-04-11T04:26:20.747Z,2.90
2024-04-11T04:30:34.652Z,2.80
2024-04-11T04:34:49.420Z,3.27
2024-04-11T04:39:07.023Z,3.03
2024-04-11T04:43:19.868Z,3.50
2024-04-11T04:47:36.156Z,3.40
2024-04-11T04:51:48.830Z,2.80
2024-04-11T04:56:01.109Z,2.90
2024-04-11T05:00:14.901Z,2.20
2024-04-11T05:04:30.991Z,2.67
2024-04-11T05:08:47.514Z,2.50
2024-04-11T05:13:00.792Z,2.20
2024-04-11T05:17:14.287Z,2.70
2024-04-11T05:21:27.734Z,2.37
2024-04-11T05:25:40.898Z,3.30
2024-04-11T05:29:53.116Z,3.20
2024-04-11T05:34:09.946Z,3.30
2024-04-11T05:38:22.918Z,3.20
2024-04-11T05:42:36.598Z,4.10
2024-04-11T05:46:48.971Z,4.30
2024-04-11T05:51:01.233Z,3.77
2024-04-11T05:55:14.173Z,3.80
2024-04-11T05:59:26.645Z,3.77
2024-04-11T06:03:42.616Z,5.63
2024-04-11T06:07:56.615Z,5.70
2024-04-11T06:12:12.000Z,6.93
2024-04-11T06:16:24.266Z,6.37
2024-04-11T06:20:36.488Z,9.30
2024-04-11T06:24:48.644Z,8.37
2024-04-11T06:29:00.943Z,5.00
2024-04-11T06:33:14.750Z,5.13
2024-04-11T06:37:26.962Z,3.83
2024-04-11T06:41:39.315Z,3.88
2024-04-11T06:45:51.762Z,4.28
2024-04-11T06:50:07.774Z,4.22
2024-04-11T06:54:20.060Z,4.10
2024-04-11T06:58:33.676Z,4.18
2024-04-11T07:02:50.322Z,4.65
2024-04-11T07:07:09.557Z,4.85
2024-04-11T07:11:28.094Z,4.40
2024-04-11T07:15:44.276Z,3.80
2024-04-11T07:19:59.657Z,4.10
2024-04-11T07:24:15.400Z,4.32
2024-04-11T07:28:27.953Z,4.03
2024-04-11T07:32:41.579Z,4.70
2024-04-11T07:36:53.938Z,4.00
2024-04-11T07:41:18.516Z,3.88
2024-04-11T07:45:32.176Z,3.88
2024-04-11T07:49:48.301Z,3.70
2024-04-11T07:54:04.662Z,3.53
2024-04-11T07:58:20.450Z,3.28
2024-04-11T08:02:34.998Z,3.63
2024-04-11T08:06:47.278Z,2.00
2024-04-11T08:11:04.372Z,1.83
2024-04-11T08:15:16.955Z,1.77
2024-04-11T08:19:33.428Z,1.42
2024-04-11T08:23:47.951Z,1.40
2024-04-11T08:28:02.059Z,1.30
2024-04-11T08:32:15.006Z,1.40
2024-04-11T08:36:31.050Z,1.50
2024-04-11T08:40:45.663Z,1.38
2024-04-11T08:44:59.270Z,1.52
2024-04-11T08:49:12.261Z,1.48
2024-04-11T08:53:26.140Z,1.60
2024-04-11T08:57:38.753Z,1.23
2024-04-11T09:01:50.943Z,1.23
2024-04-11T09:06:03.711Z,1.20
2024-04-11T09:10:20.403Z,1.00
2024-04-11T09:14:33.228Z,1.13
2024-04-11T09:18:48.253Z,0.90
2024-04-11T09:23:05.104Z,0.95
2024-04-11T09:27:18.357Z,1.08
2024-04-11T09:31:31.392Z,1.38
2024-04-11T09:35:48.219Z,1.42
2024-04-11T09:40:12.826Z,1.27
2024-04-11T09:44:32.814Z,1.08
2024-04-11T09:48:50.179Z,1.10
2024-04-11T09:53:02.913Z,1.23
2024-04-11T09:57:16.230Z,0.95
2024-04-11T10:01:31.676Z,0.75
2024-04-11T10:05:48.108Z,1.00
2024-04-11T10:10:07.755Z,1.00
2024-04-11T10:14:24.186Z,1.30
2024-04-11T10:18:47.752Z,1.48
2024-04-11T10:23:00.843Z,1.00
2024-04-11T10:27:19.563Z,1.13
2024-04-11T10:31:34.550Z,1.17
2024-04-11T10:35:48.099Z,1.27
2024-04-11T10:40:01.941Z,1.00
2024-04-11T10:44:14.195Z,1.10
2024-04-11T10:48:26.907Z,1.30
2024-04-11T10:52:47.059Z,0.95
2024-04-11T10:56:59.999Z,1.10
2024-04-11T11:01:15.641Z,1.00
2024-04-11T11:05:28.705Z,0.98
2024-04-11T11:09:47.547Z,1.20
2024-04-11T11:14:01.675Z,1.10
2024-04-11T11:18:14.457Z,1.08
2024-04-11T11:22:34.834Z,1.15
2024-04-11T11:26:48.211Z,1.20
2024-04-11T11:31:01.950Z,1.10
2024-04-11T11:35:14.180Z,0.90
2024-04-11T11:39:26.732Z,1.08
2024-04-11T11:43:45.125Z,1.35
2024-04-11T11:47:59.350Z,1.20
2024-04-11T11:52:15.394Z,1.30
2024-04-11T11:56:33.814Z,1.00
2024-04-11T12:01:00.287Z,1.38
2024-04-11T12:05:16.017Z,1.63
2024-04-11T12:09:33.138Z,1.25
2024-04-11T12:13:52.652Z,1.40
2024-04-11T12:18:13.260Z,1.10
2024-04-11T12:22:27.948Z,1.00
2024-04-11T12:26:41.650Z,1.10
2024-04-11T12:31:06.969Z,1.08
2024-04-11T12:35:30.983Z,1.00
2024-04-11T12:39:55.127Z,1.20
2024-04-11T12:44:25.091Z,1.00
2024-04-11T12:48:39.729Z,0.95
2024-04-11T12:52:51.996Z,1.25
2024-04-11T12:57:08.457Z,0.95
2024-04-11T13:01:21.061Z,1.35
2024-04-11T13:05:42.201Z,1.30
2024-04-11T13:09:59.702Z,0.98
2024-04-11T13:14:12.148Z,1.10
2024-04-11T13:18:30.155Z,1.00
2024-04-11T13:22:50.215Z,1.25
2024-04-11T13:27:02.903Z,1.10
2024-04-11T13:31:21.394Z,0.98
2024-04-11T13:35:40.485Z,1.00
2024-04-11T13:40:11.791Z,1.30
2024-04-11T13:44:27.856Z,1.10
2024-04-11T13:48:51.553Z,1.23
2024-04-11T13:53:06.433Z,1.23
2024-04-11T13:57:24.679Z,1.05
2024-04-11T14:01:52.551Z,1.30
2024-04-11T14:06:28.255Z,1.10
2024-04-11T14:10:40.530Z,1.40
2024-04-11T14:14:53.291Z,0.90
2024-04-11T14:19:08.942Z,1.00
2024-04-11T14:23:44.042Z,1.30
2024-04-11T14:28:01.289Z,1.40
2024-04-11T14:32:25.293Z,1.20
2024-04-11T14:36:55.230Z,1.42
2024-04-11T14:41:07.542Z,1.20
2024-04-11T14:45:23.758Z,1.15
2024-04-11T14:49:36.153Z,0.93
2024-04-11T14:53:48.686Z,1.20
2024-04-11T14:58:00.990Z,1.10
2024-04-11T15:02:19.269Z,1.08
2024-04-11T15:06:35.298Z,0.98
2024-04-11T15:10:51.387Z,1.20
2024-04-11T15:15:03.881Z,1.30
2024-04-11T15:19:16.728Z,1.30
2024-04-11T15:23:29.659Z,1.20
2024-04-11T15:27:51.388Z,1.17
2024-04-11T15:32:07.058Z,1.35
2024-04-11T15:36:35.430Z,1.25
2024-04-11T15:40:53.206Z,1.20
2024-04-11T15:45:06.788Z,1.25
2024-04-11T15:49:19.993Z,1.40
2024-04-11T15:53:37.536Z,1.40
2024-04-11T15:57:54.947Z,1.00
2024-04-11T16:02:10.781Z,1.30
2024-04-11T16:06:27.127Z,1.50
2024-04-11T16:10:40.199Z,1.70
2024-04-11T16:14:57.859Z,1.33
2024-04-11T16:19:14.529Z,1.40
2024-04-11T16:23:27.912Z,1.20
2024-04-11T16:27:40.198Z,1.10
2024-04-11T16:31:57.535Z,1.17
2024-04-11T16:36:12.514Z,1.35
2024-04-11T16:40:25.403Z,1.05
2024-04-11T16:44:38.065Z,1.52
2024-04-11T16:48:54.995Z,1.48
2024-04-11T16:53:10.555Z,1.20
2024-04-11T16:57:26.789Z,1.30
2024-04-11T17:01:42.260Z,1.20
2024-04-11T17:05:59.879Z,1.30
2024-04-11T17:10:18.389Z,1.63
2024-04-11T17:14:34.618Z,1.40
2024-04-11T17:18:58.692Z,1.10
2024-04-11T17:23:21.244Z,1.10
2024-04-11T17:27:35.877Z,1.10
2024-04-11T17:31:56.340Z,0.98
2024-04-11T17:36:36.647Z,1.30
2024-04-11T17:40:48.822Z,1.52
2024-04-11T17:45:04.420Z,1.83
2024-04-11T17:49:28.821Z,1.80
2024-04-11T17:53:41.067Z,2.10
2024-04-11T17:57:57.048Z,2.15
2024-04-11T18:02:13.116Z,3.92
2024-04-11T18:06:28.489Z,2.80
2024-04-11T18:10:51.292Z,2.70
2024-04-11T18:15:10.946Z,2.10
2024-04-11T18:19:30.772Z,2.33
2024-04-11T18:23:43.827Z,1.85
2024-04-11T18:27:57.724Z,2.50
2024-04-11T18:32:12.288Z,3.65
2024-04-11T18:36:27.634Z,3.58
2024-04-11T18:40:44.107Z,5.10
2024-04-11T18:45:01.405Z,5.00
2024-04-11T18:49:19.315Z,8.40
2024-04-11T18:53:32.662Z,9.30
2024-04-11T18:57:50.399Z,14.73
2024-04-11T19:02:03.989Z,20.83
2024-04-11T19:06:18.959Z,24.27
2024-04-11T19:10:31.164Z,14.50
2024-04-11T19:14:43.698Z,10.55
2024-04-11T19:18:57.954Z,9.32
2024-04-11T19:23:12.100Z,6.40
2024-04-11T19:27:29.761Z,6.13
2024-04-11T19:31:48.272Z,5.35
2024-04-11T19:36:02.373Z,6.95
2024-04-11T19:40:19.907Z,5.78
2024-04-11T19:44:32.285Z,4.78
2024-04-11T19:48:50.043Z,5.28
2024-04-11T19:53:04.021Z,4.63
2024-04-11T19:57:16.989Z,3.72
2024-04-11T20:02:00.387Z,4.47
2024-04-11T20:06:19.502Z,3.53
2024-04-11T20:10:38.402Z,4.32
2024-04-11T20:14:51.318Z,4.43
2024-04-11T20:19:04.985Z,7.10
2024-04-11T20:23:20.424Z,14.23
2024-04-11T20:27:35.906Z,17.10
2024-04-11T20:31:53.560Z,17.23
2024-04-11T20:36:11.058Z,17.13
2024-04-11T20:40:26.915Z,15.85
2024-04-11T20:44:42.355Z,12.52
2024-04-11T20:49:06.708Z,12.13
2024-04-11T20:53:38.129Z,12.20
2024-04-11T20:58:09.036Z,11.82
2024-04-11T21:02:39.864Z,8.52
2024-04-11T21:07:10.762Z,7.25
2024-04-11T21:11:42.451Z,7.07
2024-04-11T21:16:13.320Z,6.18
2024-04-11T21:20:44.205Z,4.65
2024-04-11T21:25:15.097Z,3.08
2024-04-11T21:29:45.944Z,3.28
